sensor_id;sensor_type;location;lat;lon;timestamp;P1;durP1;ratioP1;P2;durP2;ratioP2
22571;SDS011;11452;53.368;14.658;2022-12-24T00:02:44;15.33;;;10.97;;
22571;SDS011;11452;53.368;14.658;2022-12-24T00:07:50;18.07;;;11.23;;
22571;SDS011;11452;53.368;14.658;2022-12-24T00:12:56;18.70;;;11.03;;
22571;SDS011;11452;53.368;14.658;2022-12-24T00:18:01;17.27;;;9.77;;
22571;SDS011;11452;53.368;14.658;2022-12-24T00:23:07;16.60;;;10.80;;
22571;SDS011;11452;53.368;14.658;2022-12-24T00:28:12;16.70;;;11.23;;
22571;SDS011;11452;53.368;14.658;2022-12-24T00:33:19;16.47;;;9.73;;
22571;SDS011;11452;53.368;14.658;2022-12-24T00:38:26;18.73;;;11.30;;
22571;SDS011;11452;53.368;14.658;2022-12-24T00:43:32;16.17;;;10.77;;
22571;SDS011;11452;53.368;14.658;2022-12-24T00:48:38;17.50;;;10.80;;
22571;SDS011;11452;53.368;14.658;2022-12-24T00:53:43;15.63;;;10.43;;
22571;SDS011;11452;53.368;14.658;2022-12-24T00:58:48;19.57;;;8.97;;
22571;SDS011;11452;53.368;14.658;2022-12-24T01:03:54;15.37;;;8.40;;
22571;SDS011;11452;53.368;14.658;2022-12-24T01:09:02;11.87;;;7.50;;
22571;SDS011;11452;53.368;14.658;2022-12-24T01:14:08;13.47;;;7.50;;
22571;SDS011;11452;53.368;14.658;2022-12-24T01:19:13;9.43;;;6.37;;
22571;SDS011;11452;53.368;14.658;2022-12-24T01:24:18;9.37;;;7.17;;
22571;SDS011;11452;53.368;14.658;2022-12-24T01:29:24;12.67;;;8.23;;
22571;SDS011;11452;53.368;14.658;2022-12-24T01:34:30;14.33;;;8.67;;
22571;SDS011;11452;53.368;14.658;2022-12-24T01:39:35;17.40;;;9.63;;
22571;SDS011;11452;53.368;14.658;2022-12-24T01:44:42;14.33;;;10.17;;
22571;SDS011;11452;53.368;14.658;2022-12-24T01:49:55;11.47;;;7.77;;
22571;SDS011;11452;53.368;14.658;2022-12-24T01:54:59;14.30;;;8.23;;
22571;SDS011;11452;53.368;14.658;2022-12-24T02:00:07;9.37;;;6.67;;
22571;SDS011;11452;53.368;14.658;2022-12-24T02:05:19;11.40;;;7.13;;
22571;SDS011;11452;53.368;14.658;2022-12-24T02:10:29;9.23;;;6.90;;
22571;SDS011;11452;53.368;14.658;2022-12-24T02:21:14;12.67;;;7.80;;
22571;SDS011;11452;53.368;14.658;2022-12-24T02:31:39;9.93;;;7.27;;
22571;SDS011;11452;53.368;14.658;2022-12-24T02:36:54;11.27;;;7.80;;
22571;SDS011;11452;53.368;14.658;2022-12-24T02:42:10;11.17;;;7.30;;
22571;SDS011;11452;53.368;14.658;2022-12-24T02:47:18;11.83;;;6.77;;
22571;SDS011;11452;53.368;14.658;2022-12-24T02:52:34;11.53;;;6.67;;
22571;SDS011;11452;53.368;14.658;2022-12-24T02:57:58;9.43;;;6.57;;
22571;SDS011;11452;53.368;14.658;2022-12-24T03:13:47;9.20;;;6.47;;
22571;SDS011;11452;53.368;14.658;2022-12-24T03:18:54;7.93;;;6.40;;
22571;SDS011;11452;53.368;14.658;2022-12-24T03:24:02;9.40;;;6.17;;
22571;SDS011;11452;53.368;14.658;2022-12-24T03:29:08;8.97;;;6.50;;
22571;SDS011;11452;53.368;14.658;2022-12-24T03:34:14;9.27;;;5.93;;
22571;SDS011;11452;53.368;14.658;2022-12-24T03:39:21;9.97;;;6.60;;
22571;SDS011;11452;53.368;14.658;2022-12-24T03:44:27;6.37;;;5.70;;
22571;SDS011;11452;53.368;14.658;2022-12-24T03:49:32;11.53;;;6.70;;
22571;SDS011;11452;53.368;14.658;2022-12-24T03:54:38;8.47;;;7.27;;
22571;SDS011;11452;53.368;14.658;2022-12-24T03:59:43;11.17;;;7.63;;
22571;SDS011;11452;53.368;14.658;2022-12-24T04:04:49;10.90;;;7.73;;
22571;SDS011;11452;53.368;14.658;2022-12-24T04:09:54;11.13;;;8.17;;
22571;SDS011;11452;53.368;14.658;2022-12-24T04:15:00;11.40;;;8.37;;
22571;SDS011;11452;53.368;14.658;2022-12-24T04:20:06;11.60;;;7.20;;
22571;SDS011;11452;53.368;14.658;2022-12-24T04:25:12;11.40;;;7.93;;
22571;SDS011;11452;53.368;14.658;2022-12-24T04:30:18;9.50;;;7.37;;
22571;SDS011;11452;53.368;14.658;2022-12-24T04:35:23;11.97;;;7.30;;
22571;SDS011;11452;53.368;14.658;2022-12-24T04:40:29;12.80;;;7.40;;
22571;SDS011;11452;53.368;14.658;2022-12-24T04:45:34;9.97;;;6.80;;
22571;SDS011;11452;53.368;14.658;2022-12-24T04:50:40;10.10;;;6.70;;
22571;SDS011;11452;53.368;14.658;2022-12-24T04:55:45;13.37;;;7.60;;
22571;SDS011;11452;53.368;14.658;2022-12-24T05:00:51;11.13;;;6.70;;
22571;SDS011;11452;53.368;14.658;2022-12-24T05:06:03;11.13;;;7.20;;
22571;SDS011;11452;53.368;14.658;2022-12-24T05:11:12;13.63;;;8.00;;
22571;SDS011;11452;53.368;14.658;2022-12-24T05:16:19;11.70;;;7.57;;
22571;SDS011;11452;53.368;14.658;2022-12-24T05:21:25;10.07;;;6.50;;
22571;SDS011;11452;53.368;14.658;2022-12-24T05:26:32;9.17;;;5.67;;
22571;SDS011;11452;53.368;14.658;2022-12-24T05:31:40;11.20;;;6.03;;
22571;SDS011;11452;53.368;14.658;2022-12-24T05:36:47;7.10;;;6.00;;
22571;SDS011;11452;53.368;14.658;2022-12-24T05:41:53;7.57;;;5.53;;
22571;SDS011;11452;53.368;14.658;2022-12-24T05:46:58;9.00;;;7.30;;
22571;SDS011;11452;53.368;14.658;2022-12-24T05:52:04;10.57;;;7.43;;
22571;SDS011;11452;53.368;14.658;2022-12-24T05:57:09;9.70;;;7.80;;
22571;SDS011;11452;53.368;14.658;2022-12-24T06:02:17;11.03;;;7.17;;
22571;SDS011;11452;53.368;14.658;2022-12-24T06:07:23;10.47;;;7.20;;
22571;SDS011;11452;53.368;14.658;2022-12-24T06:12:29;9.47;;;6.80;;
22571;SDS011;11452;53.368;14.658;2022-12-24T06:17:35;8.83;;;6.60;;
22571;SDS011;11452;53.368;14.658;2022-12-24T06:22:40;9.80;;;7.30;;
22571;SDS011;11452;53.368;14.658;2022-12-24T06:27:46;10.17;;;7.47;;
22571;SDS011;11452;53.368;14.658;2022-12-24T06:32:51;8.80;;;7.43;;
22571;SDS011;11452;53.368;14.658;2022-12-24T06:37:57;10.83;;;7.77;;
22571;SDS011;11452;53.368;14.658;2022-12-24T06:43:02;9.63;;;7.07;;
22571;SDS011;11452;53.368;14.658;2022-12-24T06:48:08;8.87;;;7.20;;
22571;SDS011;11452;53.368;14.658;2022-12-24T06:53:14;11.27;;;8.30;;
22571;SDS011;11452;53.368;14.658;2022-12-24T06:58:19;12.60;;;8.00;;
22571;SDS011;11452;53.368;14.658;2022-12-24T07:03:24;11.10;;;8.57;;
22571;SDS011;11452;53.368;14.658;2022-12-24T07:08:30;11.20;;;7.77;;
22571;SDS011;11452;53.368;14.658;2022-12-24T07:13:38;10.73;;;8.30;;
22571;SDS011;11452;53.368;14.658;2022-12-24T07:18:43;10.90;;;7.67;;
22571;SDS011;11452;53.368;14.658;2022-12-24T07:23:49;10.13;;;8.10;;
22571;SDS011;11452;53.368;14.658;2022-12-24T07:28:54;11.50;;;8.73;;
22571;SDS011;11452;53.368;14.658;2022-12-24T07:34:00;11.20;;;8.73;;
22571;SDS011;11452;53.368;14.658;2022-12-24T07:39:06;13.90;;;9.70;;
22571;SDS011;11452;53.368;14.658;2022-12-24T07:44:12;10.07;;;8.13;;
22571;SDS011;11452;53.368;14.658;2022-12-24T07:49:18;10.30;;;7.90;;
22571;SDS011;11452;53.368;14.658;2022-12-24T07:54:23;10.47;;;8.63;;
22571;SDS011;11452;53.368;14.658;2022-12-24T07:59:29;9.40;;;8.10;;
22571;SDS011;11452;53.368;14.658;2022-12-24T08:04:34;11.83;;;8.37;;
22571;SDS011;11452;53.368;14.658;2022-12-24T08:09:40;11.87;;;8.10;;
22571;SDS011;11452;53.368;14.658;2022-12-24T08:14:46;10.50;;;8.93;;
22571;SDS011;11452;53.368;14.658;2022-12-24T08:19:52;12.50;;;8.63;;
22571;SDS011;11452;53.368;14.658;2022-12-24T08:24:57;10.00;;;8.27;;
22571;SDS011;11452;53.368;14.658;2022-12-24T08:30:03;10.83;;;7.90;;
22571;SDS011;11452;53.368;14.658;2022-12-24T08:35:10;9.63;;;7.63;;
22571;SDS011;11452;53.368;14.658;2022-12-24T08:40:15;13.97;;;8.67;;
22571;SDS011;11452;53.368;14.658;2022-12-24T08:45:21;11.10;;;8.57;;
22571;SDS011;11452;53.368;14.658;2022-12-24T08:50:26;10.27;;;7.43;;
22571;SDS011;11452;53.368;14.658;2022-12-24T08:55:32;11.23;;;8.30;;
22571;SDS011;11452;53.368;14.658;2022-12-24T09:00:37;9.53;;;7.67;;
22571;SDS011;11452;53.368;14.658;2022-12-24T09:05:43;10.97;;;7.47;;
22571;SDS011;11452;53.368;14.658;2022-12-24T09:10:48;8.50;;;6.23;;
22571;SDS011;11452;53.368;14.658;2022-12-24T09:15:54;12.73;;;7.70;;
22571;SDS011;11452;53.368;14.658;2022-12-24T09:21:00;11.63;;;8.00;;
22571;SDS011;11452;53.368;14.658;2022-12-24T09:26:18;9.03;;;6.17;;
22571;SDS011;11452;53.368;14.658;2022-12-24T09:31:25;8.20;;;6.10;;
22571;SDS011;11452;53.368;14.658;2022-12-24T09:36:32;11.10;;;7.10;;
22571;SDS011;11452;53.368;14.658;2022-12-24T09:41:56;9.73;;;6.90;;
22571;SDS011;11452;53.368;14.658;2022-12-24T09:47:09;10.03;;;7.20;;
22571;SDS011;11452;53.368;14.658;2022-12-24T09:52:19;9.77;;;7.17;;
22571;SDS011;11452;53.368;14.658;2022-12-24T09:57:26;10.27;;;6.37;;
22571;SDS011;11452;53.368;14.658;2022-12-24T10:02:35;10.37;;;7.57;;
22571;SDS011;11452;53.368;14.658;2022-12-24T10:07:47;10.93;;;7.57;;
22571;SDS011;11452;53.368;14.658;2022-12-24T10:13:15;11.87;;;7.87;;
22571;SDS011;11452;53.368;14.658;2022-12-24T10:18:29;12.67;;;7.87;;
22571;SDS011;11452;53.368;14.658;2022-12-24T10:28:52;12.10;;;8.77;;
22571;SDS011;11452;53.368;14.658;2022-12-24T10:34:12;10.33;;;8.63;;
22571;SDS011;11452;53.368;14.658;2022-12-24T10:39:20;13.57;;;8.07;;
22571;SDS011;11452;53.368;14.658;2022-12-24T10:44:29;10.20;;;7.10;;
22571;SDS011;11452;53.368;14.658;2022-12-24T10:49:38;9.27;;;7.77;;
22571;SDS011;11452;53.368;14.658;2022-12-24T10:55:04;15.93;;;8.70;;
22571;SDS011;11452;53.368;14.658;2022-12-24T11:00:18;12.60;;;8.57;;
22571;SDS011;11452;53.368;14.658;2022-12-24T11:05:28;11.63;;;9.00;;
22571;SDS011;11452;53.368;14.658;2022-12-24T11:10:36;12.13;;;9.20;;
22571;SDS011;11452;53.368;14.658;2022-12-24T11:15:44;9.40;;;8.40;;
22571;SDS011;11452;53.368;14.658;2022-12-24T11:20:52;11.97;;;8.10;;
22571;SDS011;11452;53.368;14.658;2022-12-24T11:26:00;13.27;;;8.50;;
22571;SDS011;11452;53.368;14.658;2022-12-24T11:31:19;12.50;;;9.37;;
22571;SDS011;11452;53.368;14.658;2022-12-24T11:36:26;10.07;;;8.87;;
22571;SDS011;11452;53.368;14.658;2022-12-24T11:41:36;13.03;;;9.00;;
22571;SDS011;11452;53.368;14.658;2022-12-24T11:46:43;12.40;;;8.97;;
22571;SDS011;11452;53.368;14.658;2022-12-24T11:52:03;13.10;;;9.70;;
22571;SDS011;11452;53.368;14.658;2022-12-24T11:57:17;14.37;;;9.63;;
22571;SDS011;11452;53.368;14.658;2022-12-24T12:02:30;12.17;;;9.10;;
22571;SDS011;11452;53.368;14.658;2022-12-24T12:07:35;13.27;;;9.97;;
22571;SDS011;11452;53.368;14.658;2022-12-24T12:13:06;11.07;;;9.03;;
22571;SDS011;11452;53.368;14.658;2022-12-24T12:18:18;11.93;;;9.77;;
22571;SDS011;11452;53.368;14.658;2022-12-24T12:28:53;11.47;;;9.60;;
22571;SDS011;11452;53.368;14.658;2022-12-24T12:39:19;11.03;;;9.07;;
22571;SDS011;11452;53.368;14.658;2022-12-24T12:55:25;10.60;;;9.20;;
22571;SDS011;11452;53.368;14.658;2022-12-24T13:00:35;11.27;;;9.00;;
22571;SDS011;11452;53.368;14.658;2022-12-24T13:11:22;12.53;;;8.77;;
22571;SDS011;11452;53.368;14.658;2022-12-24T13:16:51;10.83;;;8.50;;
22571;SDS011;11452;53.368;14.658;2022-12-24T13:21:54;10.57;;;8.00;;
22571;SDS011;11452;53.368;14.658;2022-12-24T13:27:11;11.73;;;8.13;;
22571;SDS011;11452;53.368;14.658;2022-12-24T13:37:43;13.77;;;9.63;;
22571;SDS011;11452;53.368;14.658;2022-12-24T13:48:29;15.40;;;12.00;;
22571;SDS011;11452;53.368;14.658;2022-12-24T13:53:38;19.50;;;13.17;;
22571;SDS011;11452;53.368;14.658;2022-12-24T13:58:46;17.97;;;13.53;;
22571;SDS011;11452;53.368;14.658;2022-12-24T14:03:54;16.27;;;12.60;;
22571;SDS011;11452;53.368;14.658;2022-12-24T14:14:24;16.17;;;12.93;;
22571;SDS011;11452;53.368;14.658;2022-12-24T14:19:40;17.97;;;12.67;;
22571;SDS011;11452;53.368;14.658;2022-12-24T14:24:57;19.00;;;12.40;;
22571;SDS011;11452;53.368;14.658;2022-12-24T14:30:18;22.50;;;12.53;;
22571;SDS011;11452;53.368;14.658;2022-12-24T14:35:29;18.10;;;12.50;;
22571;SDS011;11452;53.368;14.658;2022-12-24T14:46:14;15.47;;;10.40;;
22571;SDS011;11452;53.368;14.658;2022-12-24T14:51:26;19.97;;;12.77;;
22571;SDS011;11452;53.368;14.658;2022-12-24T14:56:31;16.13;;;11.27;;
22571;SDS011;11452;53.368;14.658;2022-12-24T15:01:37;13.90;;;10.53;;
22571;SDS011;11452;53.368;14.658;2022-12-24T15:06:46;14.77;;;11.40;;
22571;SDS011;11452;53.368;14.658;2022-12-24T15:11:57;19.07;;;11.70;;
22571;SDS011;11452;53.368;14.658;2022-12-24T15:17:05;13.50;;;10.90;;
22571;SDS011;11452;53.368;14.658;2022-12-24T15:22:23;15.40;;;10.87;;
22571;SDS011;11452;53.368;14.658;2022-12-24T15:27:30;12.93;;;9.73;;
22571;SDS011;11452;53.368;14.658;2022-12-24T15:32:35;11.80;;;9.90;;
22571;SDS011;11452;53.368;14.658;2022-12-24T15:37:40;17.03;;;11.20;;
22571;SDS011;11452;53.368;14.658;2022-12-24T15:42:46;15.57;;;11.00;;
22571;SDS011;11452;53.368;14.658;2022-12-24T15:47:56;13.43;;;9.90;;
22571;SDS011;11452;53.368;14.658;2022-12-24T15:53:10;14.57;;;10.30;;
22571;SDS011;11452;53.368;14.658;2022-12-24T15:58:23;15.37;;;11.10;;
22571;SDS011;11452;53.368;14.658;2022-12-24T16:03:30;10.97;;;8.83;;
22571;SDS011;11452;53.368;14.658;2022-12-24T16:08:37;13.90;;;9.80;;
22571;SDS011;11452;53.368;14.658;2022-12-24T16:14:01;11.27;;;8.87;;
22571;SDS011;11452;53.368;14.658;2022-12-24T16:19:21;10.93;;;8.40;;
22571;SDS011;11452;53.368;14.658;2022-12-24T16:24:28;12.10;;;8.90;;
22571;SDS011;11452;53.368;14.658;2022-12-24T16:29:35;13.43;;;10.00;;
22571;SDS011;11452;53.368;14.658;2022-12-24T16:34:40;13.43;;;9.37;;
22571;SDS011;11452;53.368;14.658;2022-12-24T16:39:45;15.50;;;8.80;;
22571;SDS011;11452;53.368;14.658;2022-12-24T16:44:52;11.07;;;8.30;;
22571;SDS011;11452;53.368;14.658;2022-12-24T16:49:58;12.13;;;8.67;;
22571;SDS011;11452;53.368;14.658;2022-12-24T16:55:05;14.10;;;9.43;;
22571;SDS011;11452;53.368;14.658;2022-12-24T17:00:15;13.97;;;9.47;;
22571;SDS011;11452;53.368;14.658;2022-12-24T17:05:25;13.87;;;10.00;;
22571;SDS011;11452;53.368;14.658;2022-12-24T17:10:31;14.90;;;10.37;;
22571;SDS011;11452;53.368;14.658;2022-12-24T17:15:40;16.30;;;10.97;;
22571;SDS011;11452;53.368;14.658;2022-12-24T17:20:55;15.30;;;9.37;;
22571;SDS011;11452;53.368;14.658;2022-12-24T17:25:53;14.97;;;9.87;;
22571;SDS011;11452;53.368;14.658;2022-12-24T17:31:05;12.97;;;9.43;;
22571;SDS011;11452;53.368;14.658;2022-12-24T17:36:11;15.87;;;11.03;;
22571;SDS011;11452;53.368;14.658;2022-12-24T17:41:17;18.67;;;11.77;;
22571;SDS011;11452;53.368;14.658;2022-12-24T17:46:23;17.17;;;11.33;;
22571;SDS011;11452;53.368;14.658;2022-12-24T17:51:29;17.90;;;10.93;;
22571;SDS011;11452;53.368;14.658;2022-12-24T17:56:36;14.50;;;10.80;;
22571;SDS011;11452;53.368;14.658;2022-12-24T18:01:41;14.40;;;10.50;;
22571;SDS011;11452;53.368;14.658;2022-12-24T18:06:47;16.90;;;11.33;;
22571;SDS011;11452;53.368;14.658;2022-12-24T18:11:54;19.87;;;11.50;;
22571;SDS011;11452;53.368;14.658;2022-12-24T18:17:00;19.33;;;12.00;;
22571;SDS011;11452;53.368;14.658;2022-12-24T18:22:06;20.77;;;13.47;;
22571;SDS011;11452;53.368;14.658;2022-12-24T18:27:20;20.03;;;12.30;;
22571;SDS011;11452;53.368;14.658;2022-12-24T18:32:26;18.93;;;11.53;;
22571;SDS011;11452;53.368;14.658;2022-12-24T18:37:31;17.87;;;11.90;;
22571;SDS011;11452;53.368;14.658;2022-12-24T18:42:39;18.33;;;10.93;;
22571;SDS011;11452;53.368;14.658;2022-12-24T18:47:44;19.33;;;11.90;;
22571;SDS011;11452;53.368;14.658;2022-12-24T18:52:50;18.73;;;11.67;;
22571;SDS011;11452;53.368;14.658;2022-12-24T18:57:55;19.77;;;12.57;;
22571;SDS011;11452;53.368;14.658;2022-12-24T19:03:01;23.07;;;14.43;;
22571;SDS011;11452;53.368;14.658;2022-12-24T19:08:07;22.37;;;14.27;;
22571;SDS011;11452;53.368;14.658;2022-12-24T19:13:14;21.20;;;12.67;;
22571;SDS011;11452;53.368;14.658;2022-12-24T19:18:20;24.40;;;13.07;;
22571;SDS011;11452;53.368;14.658;2022-12-24T19:23:25;26.07;;;13.30;;
22571;SDS011;11452;53.368;14.658;2022-12-24T19:28:31;23.17;;;14.00;;
22571;SDS011;11452;53.368;14.658;2022-12-24T19:33:43;27.07;;;15.90;;
22571;SDS011;11452;53.368;14.658;2022-12-24T19:38:46;32.20;;;16.13;;
22571;SDS011;11452;53.368;14.658;2022-12-24T19:43:53;29.20;;;15.83;;
22571;SDS011;11452;53.368;14.658;2022-12-24T19:49:01;32.53;;;16.03;;
22571;SDS011;11452;53.368;14.658;2022-12-24T19:54:11;30.97;;;16.83;;
22571;SDS011;11452;53.368;14.658;2022-12-24T19:59:17;28.67;;;15.77;;
22571;SDS011;11452;53.368;14.658;2022-12-24T20:04:23;30.00;;;15.47;;
22571;SDS011;11452;53.368;14.658;2022-12-24T20:09:28;23.27;;;13.67;;
22571;SDS011;11452;53.368;14.658;2022-12-24T20:14:36;23.77;;;14.50;;
22571;SDS011;11452;53.368;14.658;2022-12-24T20:19:42;18.67;;;12.23;;
22571;SDS011;11452;53.368;14.658;2022-12-24T20:24:47;12.47;;;8.77;;
22571;SDS011;11452;53.368;14.658;2022-12-24T20:29:53;16.10;;;9.13;;
22571;SDS011;11452;53.368;14.658;2022-12-24T20:34:58;15.00;;;9.13;;
22571;SDS011;11452;53.368;14.658;2022-12-24T20:40:04;14.27;;;9.40;;
22571;SDS011;11452;53.368;14.658;2022-12-24T20:45:10;15.23;;;9.00;;
22571;SDS011;11452;53.368;14.658;2022-12-24T20:50:16;16.37;;;10.47;;
22571;SDS011;11452;53.368;14.658;2022-12-24T20:55:23;18.10;;;11.03;;
22571;SDS011;11452;53.368;14.658;2022-12-24T21:00:29;15.03;;;10.33;;
22571;SDS011;11452;53.368;14.658;2022-12-24T21:05:34;13.03;;;9.50;;
22571;SDS011;11452;53.368;14.658;2022-12-24T21:10:40;15.10;;;10.10;;
22571;SDS011;11452;53.368;14.658;2022-12-24T21:15:45;17.20;;;8.83;;
22571;SDS011;11452;53.368;14.658;2022-12-24T21:20:51;17.20;;;9.33;;
22571;SDS011;11452;53.368;14.658;2022-12-24T21:25:58;14.20;;;8.53;;
22571;SDS011;11452;53.368;14.658;2022-12-24T21:31:07;14.93;;;9.43;;
22571;SDS011;11452;53.368;14.658;2022-12-24T21:36:16;14.33;;;8.47;;
22571;SDS011;11452;53.368;14.658;2022-12-24T21:41:23;15.60;;;10.10;;
22571;SDS011;11452;53.368;14.658;2022-12-24T21:46:29;14.00;;;8.73;;
22571;SDS011;11452;53.368;14.658;2022-12-24T21:51:35;16.03;;;9.57;;
22571;SDS011;11452;53.368;14.658;2022-12-24T21:56:41;17.83;;;10.97;;
22571;SDS011;11452;53.368;14.658;2022-12-24T22:02:05;17.07;;;10.00;;
22571;SDS011;11452;53.368;14.658;2022-12-24T22:07:31;21.97;;;13.63;;
22571;SDS011;11452;53.368;14.658;2022-12-24T22:12:48;18.73;;;13.03;;
22571;SDS011;11452;53.368;14.658;2022-12-24T22:17:54;17.33;;;10.77;;
22571;SDS011;11452;53.368;14.658;2022-12-24T22:22:59;14.90;;;9.27;;
22571;SDS011;11452;53.368;14.658;2022-12-24T22:28:05;13.47;;;9.30;;
22571;SDS011;11452;53.368;14.658;2022-12-24T22:33:11;15.97;;;9.20;;
22571;SDS011;11452;53.368;14.658;2022-12-24T22:38:16;14.17;;;9.30;;
22571;SDS011;11452;53.368;14.658;2022-12-24T22:43:22;15.47;;;9.20;;
22571;SDS011;11452;53.368;14.658;2022-12-24T22:48:28;14.73;;;9.23;;
22571;SDS011;11452;53.368;14.658;2022-12-24T22:53:34;18.20;;;10.17;;
22571;SDS011;11452;53.368;14.658;2022-12-24T22:58:40;15.27;;;8.80;;
22571;SDS011;11452;53.368;14.658;2022-12-24T23:03:46;13.57;;;7.47;;
22571;SDS011;11452;53.368;14.658;2022-12-24T23:08:51;17.07;;;8.83;;
22571;SDS011;11452;53.368;14.658;2022-12-24T23:13:57;14.17;;;9.33;;
22571;SDS011;11452;53.368;14.658;2022-12-24T23:19:20;15.93;;;8.70;;
22571;SDS011;11452;53.368;14.658;2022-12-24T23:24:26;19.13;;;9.53;;
22571;SDS011;11452;53.368;14.658;2022-12-24T23:29:32;21.63;;;10.23;;
22571;SDS011;11452;53.368;14.658;2022-12-24T23:34:38;17.70;;;9.10;;
22571;SDS011;11452;53.368;14.658;2022-12-24T23:39:43;16.90;;;9.50;;
22571;SDS011;11452;53.368;14.658;2022-12-24T23:44:49;18.50;;;8.93;;
22571;SDS011;11452;53.368;14.658;2022-12-24T23:49:54;15.70;;;9.30;;
22571;SDS011;11452;53.368;14.658;2022-12-24T23:55:00;15.30;;;10.40;;
